Time;durP1;ratioP1;P1;durP2;ratioP2;P2;SDS_P1;SDS_P2;PMS_P1;PMS_P2;Temp;Humidity;BMP_temperature;BMP_pressure;BME280_temperature;BME280_humidity;BME280_pressure;Samples;Min_cycle;Max_cycle;Signal;HPM_P1;HPM_P2
2022/02/08 00:00:28;;;;;;;18.57;10.72;;;;;;;2.13;100.00;142793.78;1693319;85;21127;-61
2022/02/08 00:02:56;;;;;;;16.17;9.55;;;;;;;2.14;100.00;142795.06;1694854;84;21111;-61
2022/02/08 00:05:25;;;;;;;16.05;9.80;;;;;;;2.16;100.00;142800.00;1695070;85;21119;-61
2022/02/08 00:07:55;;;;;;;14.73;8.85;;;;;;;2.12;100.00;142790.06;1670415;85;21139;-61
2022/02/08 00:10:22;;;;;;;15.03;8.33;;;;;;;2.08;100.00;142781.33;1667196;85;21068;-62
2022/02/08 00:12:49;;;;;;;13.65;7.60;;;;;;;2.04;100.00;142771.39;1681922;85;21095;-61
2022/02/08 00:15:16;;;;;;;12.82;8.33;;;;;;;2.01;100.00;142762.66;1694533;85;21072;-62
2022/02/08 00:17:43;;;;;;;14.05;7.42;;;;;;;1.99;100.00;142757.70;1693162;85;21060;-61
2022/02/08 00:20:11;;;;;;;13.35;7.62;;;;;;;2.01;100.00;142762.66;1695451;85;21085;-61
2022/02/08 00:22:38;;;;;;;11.97;6.85;;;;;;;2.02;100.00;142766.41;1694994;85;21079;-61
2022/02/08 00:25:06;;;;;;;10.75;6.67;;;;;;;2.05;100.00;142772.62;1693449;85;21103;-61
2022/02/08 00:27:33;;;;;;;12.45;7.33;;;;;;;2.04;100.00;142771.39;1693156;84;21068;-63
2022/02/08 00:30:01;;;;;;;10.20;6.20;;;;;;;2.02;100.00;142765.17;1693732;85;21062;-61
2022/02/08 00:32:28;;;;;;;10.18;5.00;;;;;;;1.96;100.00;142751.48;1681124;85;21077;-61
2022/02/08 00:34:55;;;;;;;9.05;5.53;;;;;;;1.95;100.00;142750.19;1667016;86;21076;-61
2022/02/08 00:37:22;;;;;;;7.83;4.67;;;;;;;1.96;100.00;142751.48;1658673;85;21097;-61
2022/02/08 00:39:49;;;;;;;9.03;4.62;;;;;;;1.99;100.00;142758.94;1658842;85;21113;-61
2022/02/08 00:42:16;;;;;;;9.45;4.15;;;;;;;2.01;100.00;142762.66;1656333;86;21559;-61
2022/02/08 00:44:52;;;;;;;7.75;4.45;;;;;;;2.00;100.00;142760.19;1658266;85;21117;-62
2022/02/08 00:49:43;;;;;;;9.20;5.17;;;;;;;1.90;100.00;142737.75;1655442;86;21595;-59
2022/02/08 00:52:15;;;;;;;11.53;5.47;;;;;;;1.91;100.00;142740.27;1654255;85;21132;-61
2022/02/08 00:54:42;;;;;;;6.53;3.90;;;;;;;1.95;100.00;142748.97;1653982;85;21579;-61
2022/02/08 00:57:09;;;;;;;8.03;4.40;;;;;;;1.92;100.00;142742.73;1652229;85;21669;-61
2022/02/08 00:59:36;;;;;;;10.23;4.40;;;;;;;1.89;100.00;142734.03;1658512;85;21145;-61
2022/02/08 01:02:05;;;;;;;8.10;3.67;;;;;;;1.85;100.00;142724.06;1659302;86;21097;-61
2022/02/08 01:04:33;;;;;;;9.50;4.08;;;;;;;1.80;100.00;142711.61;1659500;85;21176;-61
2022/02/08 01:07:03;;;;;;;8.70;3.47;;;;;;;1.78;100.00;142707.91;1659665;85;21426;-61
2022/02/08 01:12:08;;;;;;;8.23;3.75;;;;;;;1.81;99.77;142715.38;1655011;85;21293;-61
2022/02/08 01:14:39;;;;;;;7.80;3.42;;;;;;;1.80;99.84;142712.84;1657425;85;21054;-62
2022/02/08 01:17:06;;;;;;;7.30;3.55;;;;;;;1.76;99.85;142702.92;1655318;85;21473;-61
2022/02/08 01:19:36;;;;;;;6.05;3.75;;;;;;;1.71;100.00;142690.47;1655517;85;21650;-61
2022/02/08 01:22:03;;;;;;;10.53;4.03;;;;;;;1.72;100.00;142692.94;1658021;85;21583;-61
2022/02/08 01:24:30;;;;;;;8.75;3.80;;;;;;;1.73;100.00;142695.41;1655986;86;21046;-61
2022/02/08 01:27:04;;;;;;;8.55;4.20;;;;;;;1.77;100.00;142705.39;1655866;86;21018;-61
2022/02/08 01:29:53;;;;;;;8.93;4.30;;;;;;;1.79;100.00;142710.38;1655728;85;21042;-62
2022/02/08 01:35:27;;;;;;;7.40;4.05;;;;;;;1.74;100.00;142699.16;1659183;85;21125;-61
2022/02/08 01:37:53;;;;;;;6.62;3.92;;;;;;;1.72;100.00;142692.94;1682664;84;21609;-61
2022/02/08 01:40:35;;;;;;;12.45;4.80;;;;;;;1.75;100.00;142700.41;1684786;83;21041;-61
2022/02/08 01:48:27;;;;;;;9.25;4.85;;;;;;;1.77;100.00;142705.39;1695209;85;21593;-61
2022/02/08 01:50:41;;;;;;;10.95;5.47;;;;;;;1.72;100.00;142692.94;1697493;83;21091;-61
2022/02/08 01:53:10;;;;;;;9.58;5.65;;;;;;;1.70;100.00;142687.95;1680367;85;21119;-61
2022/02/08 01:55:39;;;;;;;11.88;5.67;;;;;;;1.68;100.00;142682.97;1695037;85;21241;-61
2022/02/08 01:58:07;;;;;;;9.08;5.22;;;;;;;1.66;100.00;142678.03;1687761;85;21604;-62
2022/02/08 02:00:34;;;;;;;9.20;5.50;;;;;;;1.60;100.00;142664.30;1667364;85;21135;-61
2022/02/08 02:03:01;;;;;;;9.18;4.45;;;;;;;1.56;100.00;142653.12;1683243;85;21071;-61
2022/02/08 02:05:33;;;;;;;8.93;5.28;;;;;;;1.55;100.00;142650.61;1694588;85;21139;-61
2022/02/08 02:08:01;;;;;;;10.53;5.60;;;;;;;1.54;100.00;142649.38;1695319;85;21032;-61
2022/02/08 02:10:29;;;;;;;12.95;5.50;;;;;;;1.55;100.00;142650.61;1689281;85;21056;-61
2022/02/08 02:13:05;;;;;;;11.68;5.78;;;;;;;1.54;100.00;142648.14;1668412;86;21490;-59
2022/02/08 02:15:34;;;;;;;7.78;4.90;;;;;;;1.49;100.00;142636.92;1671628;85;21060;-61
2022/02/08 02:18:01;;;;;;;9.70;4.65;;;;;;;1.50;100.00;142640.69;1696034;85;21573;-62
2022/02/08 02:20:33;;;;;;;10.95;5.50;;;;;;;1.49;100.00;142638.16;1695908;85;21088;-60
2022/02/08 02:23:00;;;;;;;11.30;5.37;;;;;;;1.50;100.00;142640.69;1695990;85;21016;-62
2022/02/08 02:25:33;;;;;;;7.45;4.58;;;;;;;1.51;100.00;142641.91;1693764;85;21044;-62
2022/02/08 02:28:04;;;;;;;9.50;4.97;;;;;;;1.49;100.00;142636.92;1721933;83;21005;-61
2022/02/08 02:30:34;;;;;;;8.83;4.67;;;;;;;1.46;100.00;142629.47;1696348;85;21024;-60
2022/02/08 02:33:06;;;;;;;8.05;4.28;;;;;;;1.47;100.00;142633.17;1696474;85;21052;-61
2022/02/08 02:35:34;;;;;;;8.13;4.83;;;;;;;1.49;100.00;142638.16;1694576;85;21498;-61
2022/02/08 02:38:05;;;;;;;8.28;4.75;;;;;;;1.49;100.00;142636.92;1687923;84;21088;-61
2022/02/08 02:40:36;;;;;;;8.65;4.92;;;;;;;1.47;100.00;142633.17;1683820;83;21535;-61
2022/02/08 02:43:03;;;;;;;11.93;5.33;;;;;;;1.45;100.00;142626.95;1685406;83;21040;-60
2022/02/08 02:45:31;;;;;;;9.28;4.50;;;;;;;1.45;100.00;142626.95;1683427;85;21112;-62
2022/02/08 02:47:59;;;;;;;11.00;5.30;;;;;;;1.48;100.00;142634.47;1671078;85;21081;-62
2022/02/08 02:50:28;;;;;;;10.88;5.90;;;;;;;1.49;100.00;142638.16;1661813;85;21033;-61
2022/02/08 02:52:55;;;;;;;12.05;5.83;;;;;;;1.50;100.00;142639.41;1685271;84;21124;-60
2022/02/08 02:55:22;;;;;;;12.93;6.60;;;;;;;1.46;100.00;142630.70;1683006;85;21025;-61
2022/02/08 02:57:53;;;;;;;8.83;5.35;;;;;;;1.44;100.00;142624.48;1683449;84;21184;-61
2022/02/08 03:17:32;;;;;;;11.33;5.78;;;;;;;1.41;100.00;142618.25;1598861;90;21037;-63
2022/02/08 03:19:39;;;;;;;9.73;5.20;;;;;;;1.40;100.00;142614.50;1631550;85;21073;-59
2022/02/08 03:22:06;;;;;;;11.33;5.50;;;;;;;1.36;100.00;142605.81;1635231;88;21571;-59
2022/02/08 03:24:33;;;;;;;10.90;4.58;;;;;;;1.36;100.00;142605.81;1635990;88;21084;-59
2022/02/08 03:27:01;;;;;;;7.28;4.50;;;;;;;1.34;100.00;142599.59;1635568;87;21150;-60
2022/02/08 03:29:28;;;;;;;8.28;4.55;;;;;;;1.37;100.00;142608.28;1633910;87;21069;-60
2022/02/08 03:31:55;;;;;;;11.00;4.83;;;;;;;1.40;100.00;142614.50;1635513;88;21178;-60
2022/02/08 03:34:22;;;;;;;8.23;4.40;;;;;;;1.41;100.00;142617.03;1635500;88;21107;-60
2022/02/08 03:36:50;;;;;;;8.18;4.75;;;;;;;1.41;100.00;142618.25;1635516;87;21163;-60
2022/02/08 03:39:31;;;;;;;10.80;4.78;;;;;;;1.38;100.00;142610.80;1633648;87;21073;-60
2022/02/08 03:41:53;;;;;;;9.90;5.65;;;;;;;1.37;100.00;142608.28;1629844;86;21599;-60
2022/02/08 03:44:21;;;;;;;11.55;6.28;;;;;;;1.42;100.00;142619.50;1635377;88;21076;-61
2022/02/08 03:46:48;;;;;;;9.85;5.28;;;;;;;1.42;100.00;142620.73;1657465;87;21095;-62
2022/02/08 03:49:16;;;;;;;10.88;4.45;;;;;;;1.44;100.00;142624.48;1625884;87;21484;-60
2022/02/08 03:51:58;;;;;;;9.70;4.80;;;;;;;1.43;100.00;142622.02;1655870;86;21066;-60
2022/02/08 03:54:19;;;;;;;11.55;5.92;;;;;;;1.39;100.00;142612.03;1658015;85;21085;-60
2022/02/08 03:56:47;;;;;;;11.00;6.17;;;;;;;1.39;100.00;142613.28;1649575;87;21612;-59
2022/02/08 03:59:15;;;;;;;12.28;5.62;;;;;;;1.38;100.00;142609.56;1658254;85;21086;-59
2022/02/08 04:06:37;;;;;;;9.40;5.60;;;;;;;1.36;100.00;142605.81;1678301;83;21026;-62
2022/02/08 04:09:08;;;;;;;10.15;5.62;;;;;;;1.33;100.00;142598.36;1684929;84;21586;-62
2022/02/08 04:11:39;;;;;;;10.65;5.28;;;;;;;1.32;100.00;142595.84;1665139;85;21037;-62
2022/02/08 04:14:21;;;;;;;11.85;6.15;;;;;;;1.30;100.00;142590.91;1677522;84;21053;-62
2022/02/08 04:16:37;;;;;;;11.10;6.12;;;;;;;1.30;100.00;142590.91;1684796;84;21543;-62
2022/02/08 04:33:08;;;;;;;11.12;5.17;;;;;;;1.24;100.00;142577.19;1683486;84;21041;-61
2022/02/08 04:35:42;;;;;;;10.65;5.75;;;;;;;1.25;100.00;142579.69;1683557;84;21059;-61
2022/02/08 04:38:24;;;;;;;9.00;5.60;;;;;;;1.22;100.00;142570.95;1686658;83;21053;-61
2022/02/08 04:43:17;;;;;;;10.10;5.50;;;;;;;1.10;100.00;142541.12;1683743;85;21515;-60
2022/02/08 04:45:48;;;;;;;11.35;5.03;;;;;;;1.07;100.00;142536.16;1688050;84;21053;-62
2022/02/08 04:48:36;;;;;;;8.33;5.43;;;;;;;1.10;100.00;142542.38;1687428;84;21036;-61
2022/02/08 04:51:03;;;;;;;9.90;5.35;;;;;;;1.10;100.00;142542.38;1683007;85;21535;-62
2022/02/08 04:53:31;;;;;;;11.43;5.65;;;;;;;1.13;100.00;142548.59;1684922;84;21065;-65
2022/02/08 04:56:09;;;;;;;10.10;5.33;;;;;;;1.16;100.00;142556.05;1687297;84;21060;-63
2022/02/08 04:58:29;;;;;;;10.68;5.30;;;;;;;1.22;100.00;142572.23;1661658;85;21053;-64
2022/02/08 05:44:30;;;;;;;9.50;6.25;;;;;;;1.01;100.00;142519.95;1675071;84;21563;-61
2022/02/08 05:46:53;;;;;;;8.48;5.00;;;;;;;0.97;99.90;142511.27;1683237;83;21045;-63
2022/02/08 05:49:39;;;;;;;10.40;5.37;;;;;;;0.99;99.83;142514.97;1683486;85;21052;-63
2022/02/08 05:52:20;;;;;;;9.65;5.40;;;;;;;0.98;99.82;142513.73;1685066;84;21503;-63
2022/02/08 05:54:25;;;;;;;10.98;5.75;;;;;;;1.01;99.71;142521.19;1673394;85;21048;-63
2022/02/08 05:56:54;;;;;;;14.00;5.95;;;;;;;1.00;99.57;142518.72;1685498;84;21033;-62
2022/02/08 05:59:22;;;;;;;13.68;5.53;;;;;;;1.00;99.60;142518.72;1670631;84;21076;-63
2022/02/08 06:01:49;;;;;;;11.22;5.25;;;;;;;1.00;99.49;142518.72;1657621;85;21579;-62
2022/02/08 06:04:21;;;;;;;11.55;6.42;;;;;;;1.04;99.43;142528.69;1658596;85;21056;-62
2022/02/08 06:06:47;;;;;;;11.05;5.67;;;;;;;1.07;99.26;142536.16;1658405;85;21065;-62
2022/02/08 06:09:15;;;;;;;9.93;5.28;;;;;;;1.06;98.91;142533.63;1657915;85;21053;-62
2022/02/08 06:11:43;;;;;;;10.90;5.50;;;;;;;1.04;98.88;142528.69;1675978;84;21105;-62
2022/02/08 06:14:11;;;;;;;10.88;5.00;;;;;;;1.08;98.72;142538.62;1685243;85;21554;-62
2022/02/08 06:16:38;;;;;;;9.83;5.50;;;;;;;1.11;98.66;142543.59;1685469;84;21080;-62
2022/02/08 06:19:07;;;;;;;10.95;6.40;;;;;;;1.14;98.05;142551.06;1685415;83;21048;-61
2022/02/08 06:21:34;;;;;;;10.78;6.10;;;;;;;1.15;97.88;142554.81;1683766;84;21225;-61
2022/02/08 06:24:00;;;;;;;10.95;5.42;;;;;;;1.15;97.77;142553.58;1683074;83;21522;-62
2022/02/08 06:26:28;;;;;;;15.35;8.63;;;;;;;1.16;97.62;142556.05;1650217;85;21039;-62
2022/02/08 06:29:08;;;;;;;15.13;8.48;;;;;;;1.16;97.17;142557.28;1679628;84;21077;-61
2022/02/08 06:31:26;;;;;;;19.35;11.18;;;;;;;1.18;97.14;142562.27;1681347;85;21049;-62
2022/02/08 06:33:53;;;;;;;14.78;8.38;;;;;;;1.23;97.02;142573.47;1685527;84;21575;-62
2022/02/08 06:36:20;;;;;;;21.27;8.00;;;;;;;1.27;96.80;142584.69;1685539;84;21013;-59
2022/02/08 06:38:46;;;;;;;18.50;10.20;;;;;;;1.30;96.21;142590.91;1691449;84;21074;-62
2022/02/08 06:41:13;;;;;;;17.80;10.23;;;;;;;1.28;96.21;142585.91;1692009;85;21099;-64
2022/02/08 06:43:40;;;;;;;13.30;7.12;;;;;;;1.32;96.00;142595.84;1668295;85;21135;-61
2022/02/08 06:46:06;;;;;;;13.83;6.62;;;;;;;1.33;95.65;142598.36;1668404;85;21052;-59
2022/02/08 06:48:34;;;;;;;11.35;5.97;;;;;;;1.35;95.59;142603.34;1668427;85;21534;-60
2022/02/08 06:51:01;;;;;;;15.35;7.67;;;;;;;1.34;95.11;142600.83;1668362;85;21164;-61
2022/02/08 06:53:28;;;;;;;13.70;6.87;;;;;;;1.33;95.05;142598.36;1670030;85;21096;-62
2022/02/08 06:55:55;;;;;;;11.88;6.78;;;;;;;1.39;94.81;142613.28;1683612;85;21056;-62
2022/02/08 06:58:25;;;;;;;13.03;6.15;;;;;;;1.45;94.47;142628.23;1686055;85;21153;-61
2022/02/08 07:00:51;;;;;;;10.23;6.25;;;;;;;1.51;94.05;142641.91;1668449;85;21088;-60
2022/02/08 07:03:21;;;;;;;12.50;5.90;;;;;;;1.56;93.71;142654.36;1670434;85;21079;-60
2022/02/08 07:05:49;;;;;;;10.63;6.15;;;;;;;1.63;92.58;142670.52;1668474;85;21100;-60
2022/02/08 07:08:18;;;;;;;17.10;9.13;;;;;;;1.63;92.16;142670.52;1668578;85;21076;-61
2022/02/08 07:10:46;;;;;;;9.23;4.92;;;;;;;1.63;92.12;142670.52;1668491;85;21137;-62
2022/02/08 07:17:04;;;;;;;10.18;3.92;;;;;;;1.56;90.20;142654.36;1669371;85;21044;-60
2022/02/08 07:19:35;;;;;;;8.90;3.47;;;;;;;1.56;89.88;142653.12;1668457;86;21036;-61
2022/02/08 07:22:03;;;;;;;9.73;4.50;;;;;;;1.55;89.33;142650.61;1668562;85;21056;-61
2022/02/08 07:24:31;;;;;;;7.85;3.83;;;;;;;1.56;89.51;142653.12;1668502;86;21423;-60
2022/02/08 07:26:59;;;;;;;10.38;4.50;;;;;;;1.57;88.99;142655.59;1681436;85;21092;-63
2022/02/08 07:43:58;;;;;;;8.68;4.40;;;;;;;1.60;85.06;142664.30;1679045;85;21059;-62
2022/02/08 07:46:27;;;;;;;8.95;4.25;;;;;;;1.59;85.15;142661.81;1606759;87;21064;-63
2022/02/08 07:48:53;;;;;;;12.68;4.78;;;;;;;1.63;85.16;142671.80;1638823;86;21082;-61
2022/02/08 07:51:22;;;;;;;8.48;3.92;;;;;;;1.68;84.92;142682.97;1635229;86;21029;-61
2022/02/08 07:53:49;;;;;;;7.85;3.55;;;;;;;1.73;84.40;142695.41;1631311;87;21090;-61
2022/02/08 07:56:16;;;;;;;6.47;3.45;;;;;;;1.75;84.50;142700.41;1637594;86;21044;-60
2022/02/08 07:58:43;;;;;;;6.58;3.67;;;;;;;1.79;84.12;142709.14;1636838;86;21060;-61
2022/02/08 08:01:10;;;;;;;10.10;3.85;;;;;;;1.83;83.85;142720.36;1634874;87;21024;-62
2022/02/08 08:03:41;;;;;;;8.90;4.58;;;;;;;1.87;83.49;142730.28;1638379;86;21051;-61
2022/02/08 08:06:11;;;;;;;10.38;4.58;;;;;;;1.88;83.17;142731.52;1626054;87;21039;-62
2022/02/08 08:08:39;;;;;;;;;;;;;;;1.89;83.33;142735.28;1610428;87;21199;-62
2022/02/08 08:11:11;;;;;;;7.40;3.77;;;;;;;1.94;82.57;142746.50;1614734;87;20136;-62
2022/02/08 08:13:39;;;;;;;9.85;4.78;;;;;;;1.98;82.41;142756.42;1622611;86;21074;-61
2022/02/08 08:16:16;;;;;;;7.95;4.10;;;;;;;1.98;82.18;142756.42;1616355;87;21070;-62
2022/02/08 08:21:00;;;;;;;8.43;3.80;;;;;;;2.14;82.20;142795.06;1626095;88;21027;-62
2022/02/08 08:23:29;;;;;;;8.60;4.58;;;;;;;2.25;81.64;142822.44;1625866;88;21584;-61
2022/02/08 08:25:55;;;;;;;8.65;3.87;;;;;;;2.33;81.34;142841.13;1627769;87;21090;-63
2022/02/08 08:28:22;;;;;;;11.53;4.00;;;;;;;2.39;80.69;142857.33;1626064;87;21086;-61
2022/02/08 08:30:49;;;;;;;8.58;3.58;;;;;;;2.41;79.64;142861.05;1625213;87;21081;-61
2022/02/08 08:33:18;;;;;;;8.98;4.20;;;;;;;2.39;79.58;142857.33;1632170;85;21097;-63
2022/02/08 08:35:44;;;;;;;10.85;4.35;;;;;;;2.39;79.35;142856.05;1637185;87;21035;-62
2022/02/08 08:38:16;;;;;;;11.60;4.83;;;;;;;2.42;78.77;142862.28;1639811;86;21130;-63
2022/02/08 08:43:57;;;;;;;9.40;4.33;;;;;;;2.42;77.96;142862.28;1661531;84;21526;-62
2022/02/08 08:49:27;;;;;;;9.68;4.78;;;;;;;2.58;77.39;142902.17;1729843;80;21094;-62
2022/02/08 08:51:42;;;;;;;12.90;5.22;;;;;;;2.76;76.66;142947.00;1732272;82;21093;-62
2022/02/08 08:54:08;;;;;;;10.18;4.08;;;;;;;2.85;75.40;142966.94;1733409;82;21019;-62
2022/02/08 08:56:41;;;;;;;8.78;3.47;;;;;;;2.85;73.25;142968.22;1731006;82;21069;-61
2022/02/08 08:59:10;;;;;;;7.72;4.08;;;;;;;2.78;72.61;142952.00;1734418;82;21026;-62
2022/02/08 09:01:38;;;;;;;6.53;3.22;;;;;;;2.74;72.16;142942.02;1734795;83;21010;-63
2022/02/08 09:04:07;;;;;;;10.85;4.25;;;;;;;2.70;71.38;142932.08;1734461;82;21089;-63
2022/02/08 09:06:36;;;;;;;9.85;3.75;;;;;;;2.66;71.59;142922.09;1732694;82;21095;-62
2022/02/08 09:09:12;;;;;;;7.53;3.75;;;;;;;2.66;71.50;142922.09;1734737;82;21115;-61
2022/02/08 09:11:58;;;;;;;8.85;3.47;;;;;;;2.77;71.14;142949.53;1734300;82;21140;-63
2022/02/08 09:14:23;;;;;;;11.40;3.50;;;;;;;2.90;70.12;142980.69;1696120;82;21064;-62
2022/02/08 09:25:39;;;;;;;8.35;2.65;;;;;;;2.66;67.06;142922.09;1634796;84;21026;-63
2022/02/08 09:29:42;;;;;;;5.80;2.60;;;;;;;2.48;67.63;142878.48;1664034;86;21107;-62
2022/02/08 09:32:19;;;;;;;6.12;2.58;;;;;;;2.48;67.72;142878.48;1663568;86;21227;-61
2022/02/08 09:34:43;;;;;;;5.65;2.72;;;;;;;2.50;67.36;142882.25;1680296;85;22288;-62
2022/02/08 09:37:16;;;;;;;6.17;2.67;;;;;;;2.51;67.50;142884.72;1687504;85;21057;-62
2022/02/08 09:39:47;;;;;;;7.42;3.25;;;;;;;2.53;67.92;142889.72;1679587;85;21096;-61
2022/02/08 09:42:15;;;;;;;11.33;4.10;;;;;;;2.60;68.26;142907.16;1691723;84;21049;-63
2022/02/08 09:44:42;;;;;;;6.80;3.52;;;;;;;2.68;68.04;142925.84;1692062;85;21574;-62
2022/02/08 09:47:16;;;;;;;7.70;3.30;;;;;;;2.70;68.15;142932.08;1706887;83;21041;-62
2022/02/08 09:49:50;;;;;;;9.70;4.35;;;;;;;2.73;68.11;142939.55;1722027;83;21088;-61
2022/02/08 09:52:11;;;;;;;9.95;2.67;;;;;;;2.75;68.07;142944.53;1731813;82;21070;-63
2022/02/08 09:54:39;;;;;;;8.85;3.15;;;;;;;2.72;67.16;142937.06;1706802;83;21676;-62
2022/02/08 09:57:06;;;;;;;8.35;3.37;;;;;;;2.64;67.39;142915.86;1706621;83;21066;-61
2022/02/08 09:59:35;;;;;;;6.62;2.87;;;;;;;2.56;67.61;142897.17;1714417;83;21069;-62
2022/02/08 10:02:01;;;;;;;11.25;3.25;;;;;;;2.55;67.94;142894.70;1716347;82;21170;-62
2022/02/08 10:04:30;;;;;;;6.00;2.80;;;;;;;2.54;67.80;142892.19;1722684;82;21105;-62
2022/02/08 10:07:14;;;;;;;6.62;2.00;;;;;;;2.45;67.89;142869.78;1711647;83;21142;-61
2022/02/08 10:09:42;;;;;;;5.87;2.08;;;;;;;2.35;67.82;142847.34;1720892;82;21100;-62
2022/02/08 10:12:10;;;;;;;7.03;2.40;;;;;;;2.31;68.09;142837.36;1691505;83;21628;-62
2022/02/08 10:22:50;;;;;;;5.22;1.82;;;;;;;2.48;66.94;142878.48;1672709;84;21531;-62
2022/02/08 10:28:29;;;;;;;6.08;1.95;;;;;;;2.50;66.87;142882.25;1663877;85;21051;-62
2022/02/08 10:31:00;;;;;;;5.95;2.30;;;;;;;2.45;66.62;142869.78;1719977;83;21063;-61
2022/02/08 10:38:45;;;;;;;9.38;3.55;;;;;;;2.57;65.57;142899.66;1758527;81;21066;-62
2022/02/08 10:41:24;;;;;;;9.83;3.80;;;;;;;2.63;64.16;142913.39;1752735;81;20972;-63
2022/02/08 10:44:10;;;;;;;7.30;3.20;;;;;;;2.74;64.02;142942.02;1734846;81;21122;-62
2022/02/08 10:46:36;;;;;;;9.70;3.25;;;;;;;2.90;63.84;142980.69;1747028;80;21027;-62
2022/02/08 10:49:13;;;;;;;8.25;3.20;;;;;;;3.07;62.84;143021.78;1719395;81;21081;-62
2022/02/08 10:51:55;;;;;;;6.97;3.00;;;;;;;3.03;62.31;143013.06;1683401;84;21110;-62
2022/02/08 10:54:32;;;;;;;8.03;3.70;;;;;;;2.97;61.72;142998.09;1705282;84;21596;-62
2022/02/08 10:56:55;;;;;;;5.78;3.05;;;;;;;3.01;62.02;143006.84;1679069;84;21090;-62
2022/02/08 10:59:30;;;;;;;5.95;2.87;;;;;;;3.01;61.87;143006.84;1704520;83;21034;-61
2022/02/08 11:02:06;;;;;;;9.48;2.72;;;;;;;2.99;61.75;143001.84;1684591;84;20996;-61
2022/02/08 11:04:49;;;;;;;7.10;3.15;;;;;;;2.93;61.68;142986.91;1704421;83;21070;-61
2022/02/08 11:07:23;;;;;;;5.85;2.30;;;;;;;2.84;62.03;142965.70;1706371;82;21029;-62
2022/02/08 11:09:52;;;;;;;11.90;3.27;;;;;;;2.78;62.21;142952.00;1674750;84;21140;-62
2022/02/08 11:12:25;;;;;;;6.87;2.30;;;;;;;2.80;62.66;142955.77;1707755;84;21531;-62
2022/02/08 11:15:09;;;;;;;4.97;2.22;;;;;;;2.83;62.16;142964.47;1717424;81;21531;-61
2022/02/08 11:22:49;;;;;;;7.30;2.80;;;;;;;2.76;62.61;142947.00;1705449;84;21117;-61
2022/02/08 11:25:24;;;;;;;7.15;3.70;;;;;;;2.72;62.73;142935.78;1680383;84;21066;-62
2022/02/08 11:27:52;;;;;;;9.03;3.75;;;;;;;2.72;63.06;142937.06;1705046;84;21153;-61
2022/02/08 11:30:35;;;;;;;4.78;2.45;;;;;;;2.77;63.09;142949.53;1685276;84;21128;-62
2022/02/08 11:33:22;;;;;;;7.28;2.72;;;;;;;2.76;63.30;142947.00;1708372;82;21026;-61
2022/02/08 11:46:30;;;;;;;6.65;2.70;;;;;;;3.02;62.77;143009.31;1704554;82;21647;-61
2022/02/08 12:07:51;;;;;;;7.00;1.80;;;;;;;2.68;62.10;142925.84;1702176;84;21659;-61
2022/02/08 12:10:41;;;;;;;5.50;2.58;;;;;;;2.67;61.97;142924.61;1716413;82;21064;-62
2022/02/08 12:49:01;;;;;;;5.67;2.02;;;;;;;2.60;60.28;142907.16;1677436;84;21116;-61
2022/02/08 12:53:57;;;;;;;6.03;2.25;;;;;;;2.75;60.02;142943.30;1692331;84;21092;-62
2022/02/08 12:56:20;;;;;;;5.58;2.65;;;;;;;2.79;60.13;142954.47;1681735;84;21069;-61
2022/02/08 13:04:20;;;;;;;6.62;2.47;;;;;;;2.74;59.99;142942.02;1684083;84;21100;-62
2022/02/08 13:32:54;;;;;;;8.35;3.10;;;;;;;2.67;61.33;142923.33;1705652;83;21050;-62
2022/02/08 14:02:03;;;;;;;9.25;2.30;;;;;;;2.09;62.70;142782.61;1696294;81;21060;-61
2022/02/08 14:07:10;;;;;;;5.33;2.37;;;;;;;2.02;62.86;142766.41;1728502;81;21000;-63
2022/02/08 14:09:49;;;;;;;6.75;2.50;;;;;;;1.98;63.04;142755.19;1759258;81;21083;-63
2022/02/08 14:14:42;;;;;;;5.35;2.27;;;;;;;1.97;63.45;142753.95;1699371;83;21073;-64
2022/02/08 14:30:32;;;;;;;6.42;2.85;;;;;;;1.80;64.55;142712.84;1762737;81;21111;-63
2022/02/08 14:35:38;;;;;;;9.55;3.27;;;;;;;1.85;64.70;142725.30;1692205;83;21022;-61
2022/02/08 15:10:27;;;;;;;9.95;3.25;;;;;;;1.82;65.53;142717.84;1730919;81;21100;-64
2022/02/08 15:12:54;;;;;;;10.03;2.83;;;;;;;1.84;65.21;142721.59;1719022;83;21065;-61
2022/02/08 15:15:31;;;;;;;6.33;2.50;;;;;;;1.86;65.04;142727.81;1727905;82;21064;-63
2022/02/08 15:17:49;;;;;;;8.23;3.27;;;;;;;1.81;65.11;142715.38;1748025;82;21324;-64
2022/02/08 15:20:15;;;;;;;6.78;2.67;;;;;;;1.84;65.31;142722.83;1702712;84;21101;-63
2022/02/08 15:22:42;;;;;;;7.10;2.98;;;;;;;1.86;65.17;142727.81;1758208;81;21018;-63
2022/02/08 15:25:13;;;;;;;5.65;2.60;;;;;;;1.85;65.16;142725.30;1771293;81;21011;-62
2022/02/08 15:27:44;;;;;;;11.28;2.92;;;;;;;1.82;65.14;142716.59;1771124;80;21591;-63
2022/02/08 15:30:11;;;;;;;6.95;3.10;;;;;;;1.72;65.39;142692.94;1754425;80;21053;-62
2022/02/08 15:32:38;;;;;;;6.05;2.52;;;;;;;1.68;65.64;142684.25;1714393;82;21657;-61
2022/02/08 15:35:08;;;;;;;8.35;3.00;;;;;;;1.68;65.85;142682.97;1712020;83;21113;-63
2022/02/08 15:37:53;;;;;;;6.72;3.37;;;;;;;1.71;66.00;142690.47;1765468;81;21497;-63
2022/02/08 15:40:21;;;;;;;12.65;3.92;;;;;;;1.71;66.08;142690.47;1719274;83;21220;-59
2022/02/08 15:42:49;;;;;;;7.75;3.58;;;;;;;1.69;66.26;142685.47;1724541;83;21116;-60
2022/02/08 15:45:24;;;;;;;6.45;3.08;;;;;;;1.70;66.42;142687.95;1765746;80;21106;-60
2022/02/08 15:47:49;;;;;;;6.78;3.08;;;;;;;1.71;66.38;142690.47;1733929;83;21197;-59
2022/02/08 15:50:45;;;;;;;10.08;3.40;;;;;;;1.72;66.47;142694.17;1759227;81;22270;-60
2022/02/08 15:53:12;;;;;;;8.00;3.65;;;;;;;1.70;66.54;142687.95;1759782;81;20996;-60
2022/02/08 15:56:25;;;;;;;8.45;3.40;;;;;;;1.73;66.69;142695.41;1760358;81;21019;-60
2022/02/08 15:58:06;;;;;;;7.58;3.62;;;;;;;1.79;66.65;142710.38;1747584;81;21007;-59
2022/02/08 16:00:50;;;;;;;5.83;2.95;;;;;;;1.87;66.58;142730.28;1758246;81;20997;-60
2022/02/08 16:05:58;;;;;;;8.43;3.10;;;;;;;1.97;66.46;142753.95;1715922;83;21081;-60
2022/02/08 16:08:26;;;;;;;9.70;3.27;;;;;;;1.99;66.46;142758.94;1757703;81;20996;-60
2022/02/08 16:10:58;;;;;;;8.30;3.80;;;;;;;1.99;66.30;142758.94;1748766;81;21041;-61
2022/02/08 16:13:29;;;;;;;10.72;3.47;;;;;;;2.02;66.27;142765.17;1713707;82;21083;-60
2022/02/08 16:16:14;;;;;;;11.25;4.22;;;;;;;2.01;66.32;142762.66;1750484;82;21122;-60
2022/02/08 16:18:31;;;;;;;8.18;3.42;;;;;;;2.01;66.39;142762.66;1748068;82;21133;-60
2022/02/08 16:21:43;;;;;;;8.50;3.58;;;;;;;2.05;66.45;142772.62;1729928;82;21506;-60
2022/02/08 16:23:54;;;;;;;6.30;2.90;;;;;;;2.06;66.44;142776.38;1683771;84;21058;-60
2022/02/08 16:26:10;;;;;;;7.22;3.83;;;;;;;2.11;66.17;142788.83;1744808;82;21041;-60
2022/02/08 16:28:41;;;;;;;7.72;3.55;;;;;;;2.10;65.99;142785.08;1739059;82;21076;-62
2022/02/08 16:33:55;;;;;;;7.00;3.42;;;;;;;2.04;65.98;142770.16;1750708;81;21071;-59
2022/02/08 16:57:20;;;;;;;8.05;3.67;;;;;;;2.10;66.52;142785.08;1709203;84;21147;-60
2022/02/08 16:59:33;;;;;;;8.00;4.03;;;;;;;2.13;66.59;142792.53;1701139;83;21082;-60
2022/02/08 17:02:00;;;;;;;8.73;4.28;;;;;;;2.05;66.70;142772.62;1681015;84;21072;-61
2022/02/08 17:04:26;;;;;;;8.23;4.00;;;;;;;1.98;67.02;142755.19;1681017;84;21531;-61
2022/02/08 17:06:53;;;;;;;8.03;4.08;;;;;;;2.00;67.31;142760.19;1680760;85;21042;-59
2022/02/08 17:10:08;;;;;;;11.22;4.33;;;;;;;1.99;67.30;142757.70;1680183;84;21059;-59
2022/02/08 17:11:58;;;;;;;9.40;3.95;;;;;;;2.01;67.32;142763.94;1630825;86;21264;-60
2022/02/08 17:47:00;;;;;;;9.65;4.00;;;;;;;2.11;67.63;142788.83;1726470;82;21017;-60
2022/02/08 17:49:19;;;;;;;10.80;4.22;;;;;;;2.05;67.85;142773.86;1699493;83;21079;-60
2022/02/08 17:51:47;;;;;;;16.75;5.40;;;;;;;2.10;68.04;142785.08;1728474;82;21039;-61
2022/02/08 17:54:14;;;;;;;10.55;4.55;;;;;;;2.16;68.07;142801.28;1744710;81;21661;-60
2022/02/08 17:56:43;;;;;;;12.33;5.08;;;;;;;2.22;68.06;142813.73;1712978;83;21060;-60
2022/02/08 17:59:11;;;;;;;10.95;5.40;;;;;;;2.28;68.14;142828.67;1734305;82;21076;-61
2022/02/08 18:01:38;;;;;;;15.65;6.22;;;;;;;2.36;67.94;142848.59;1734487;82;21036;-60
2022/02/08 18:04:05;;;;;;;11.10;5.10;;;;;;;2.38;67.99;142854.81;1704423;84;21617;-59
2022/02/08 18:06:32;;;;;;;11.10;5.40;;;;;;;2.44;68.02;142868.50;1697951;83;21583;-60
2022/02/08 18:09:01;;;;;;;13.55;4.87;;;;;;;2.46;67.95;142872.25;1730496;81;21020;-60